PER weather

Pergamino Airport
Pergamino, Buenos Aires Province, Argentina

Public forecast

Using degrees Celsius for public forecast. Weather courtesy of forecast.io.

Closest aviation weather report (METAR) to Pergamino Airport

Report is more than 6 hours old.

Closest report is Junin Airport, 40.2 nm (74.4 km) SSW. Retrieved 2019/08/26 08:04 UTC (2 months ago):

SAAJ 260804Z 09002KT 0200 FG NSC 08/07 Q1016

Closest aviation forecast (TAF) to Pergamino Airport

Closest forecast is Islas Malvinas Airport, 61.4 nm (113.6 km) N. Retrieved 2019/10/21 12:00 UTC (2 hours ago):

TAF SAAR 211100Z 2112/2212 16005KT CAVOK TX25/2119Z TN12/2210Z BECMG 2120/2123 02005KT BECMG 2104/2107 26005KT